sensor_id;sensor_type;location;lat;lon;timestamp;P1;durP1;ratioP1;P2;durP2;ratioP2
19059;SDS011;9663;48.996;8.334;2022-08-25T00:01:35;2.05;;;0.73;;
19059;SDS011;9663;48.996;8.334;2022-08-25T00:04:07;3.08;;;1.15;;
19059;SDS011;9663;48.996;8.334;2022-08-25T00:06:37;5.32;;;1.20;;
19059;SDS011;9663;48.996;8.334;2022-08-25T00:09:05;2.70;;;1.00;;
19059;SDS011;9663;48.996;8.334;2022-08-25T00:11:32;2.40;;;0.90;;
19059;SDS011;9663;48.996;8.334;2022-08-25T00:14:03;3.15;;;0.98;;
19059;SDS011;9663;48.996;8.334;2022-08-25T00:16:38;3.15;;;1.10;;
19059;SDS011;9663;48.996;8.334;2022-08-25T00:19:07;1.95;;;0.90;;
19059;SDS011;9663;48.996;8.334;2022-08-25T00:21:38;2.03;;;0.90;;
19059;SDS011;9663;48.996;8.334;2022-08-25T00:24:06;3.15;;;1.00;;
19059;SDS011;9663;48.996;8.334;2022-08-25T00:26:33;3.30;;;1.00;;
19059;SDS011;9663;48.996;8.334;2022-08-25T00:29:03;3.22;;;1.15;;
19059;SDS011;9663;48.996;8.334;2022-08-25T00:31:29;2.90;;;1.08;;
19059;SDS011;9663;48.996;8.334;2022-08-25T00:33:55;2.78;;;1.05;;
19059;SDS011;9663;48.996;8.334;2022-08-25T00:36:21;3.40;;;1.30;;
19059;SDS011;9663;48.996;8.334;2022-08-25T00:38:47;2.63;;;1.02;;
19059;SDS011;9663;48.996;8.334;2022-08-25T00:41:15;2.72;;;1.00;;
19059;SDS011;9663;48.996;8.334;2022-08-25T00:46:22;2.20;;;0.90;;
19059;SDS011;9663;48.996;8.334;2022-08-25T00:48:57;2.53;;;0.95;;
19059;SDS011;9663;48.996;8.334;2022-08-25T00:51:42;2.88;;;0.95;;
19059;SDS011;9663;48.996;8.334;2022-08-25T00:54:14;2.78;;;1.00;;
19059;SDS011;9663;48.996;8.334;2022-08-25T00:56:47;3.25;;;0.90;;
19059;SDS011;9663;48.996;8.334;2022-08-25T00:59:16;2.10;;;0.95;;
19059;SDS011;9663;48.996;8.334;2022-08-25T01:01:47;2.40;;;1.02;;
19059;SDS011;9663;48.996;8.334;2022-08-25T01:04:14;2.40;;;1.13;;
19059;SDS011;9663;48.996;8.334;2022-08-25T01:06:41;2.47;;;1.02;;
19059;SDS011;9663;48.996;8.334;2022-08-25T01:09:09;2.78;;;1.08;;
19059;SDS011;9663;48.996;8.334;2022-08-25T01:11:38;3.17;;;1.10;;
19059;SDS011;9663;48.996;8.334;2022-08-25T01:14:08;2.75;;;1.02;;
19059;SDS011;9663;48.996;8.334;2022-08-25T01:16:38;2.05;;;0.80;;
19059;SDS011;9663;48.996;8.334;2022-08-25T01:19:07;2.35;;;0.90;;
19059;SDS011;9663;48.996;8.334;2022-08-25T01:21:38;2.50;;;0.90;;
19059;SDS011;9663;48.996;8.334;2022-08-25T01:24:10;3.10;;;1.00;;
19059;SDS011;9663;48.996;8.334;2022-08-25T01:26:48;2.08;;;0.85;;
19059;SDS011;9663;48.996;8.334;2022-08-25T01:29:14;2.88;;;1.05;;
19059;SDS011;9663;48.996;8.334;2022-08-25T01:31:46;3.25;;;1.08;;
19059;SDS011;9663;48.996;8.334;2022-08-25T01:34:14;2.40;;;0.98;;
19059;SDS011;9663;48.996;8.334;2022-08-25T01:36:42;2.72;;;1.15;;
19059;SDS011;9663;48.996;8.334;2022-08-25T01:39:09;2.88;;;1.20;;
19059;SDS011;9663;48.996;8.334;2022-08-25T01:44:26;3.25;;;1.08;;
19059;SDS011;9663;48.996;8.334;2022-08-25T01:46:52;2.80;;;1.20;;
19059;SDS011;9663;48.996;8.334;2022-08-25T01:49:19;2.38;;;1.05;;
19059;SDS011;9663;48.996;8.334;2022-08-25T01:51:46;2.25;;;0.90;;
19059;SDS011;9663;48.996;8.334;2022-08-25T01:54:20;2.45;;;1.00;;
19059;SDS011;9663;48.996;8.334;2022-08-25T01:56:46;1.92;;;0.80;;
19059;SDS011;9663;48.996;8.334;2022-08-25T01:59:13;2.22;;;0.90;;
19059;SDS011;9663;48.996;8.334;2022-08-25T02:01:44;2.42;;;1.10;;
19059;SDS011;9663;48.996;8.334;2022-08-25T02:04:10;2.15;;;0.90;;
19059;SDS011;9663;48.996;8.334;2022-08-25T02:06:36;2.40;;;0.90;;
19059;SDS011;9663;48.996;8.334;2022-08-25T02:09:04;2.50;;;1.00;;
19059;SDS011;9663;48.996;8.334;2022-08-25T02:11:40;2.85;;;1.02;;
19059;SDS011;9663;48.996;8.334;2022-08-25T02:14:09;1.88;;;0.82;;
19059;SDS011;9663;48.996;8.334;2022-08-25T02:16:38;2.08;;;0.88;;
19059;SDS011;9663;48.996;8.334;2022-08-25T02:19:09;2.72;;;1.00;;
19059;SDS011;9663;48.996;8.334;2022-08-25T02:21:36;2.63;;;0.98;;
19059;SDS011;9663;48.996;8.334;2022-08-25T02:24:03;2.38;;;0.80;;
19059;SDS011;9663;48.996;8.334;2022-08-25T02:26:30;2.40;;;1.00;;
19059;SDS011;9663;48.996;8.334;2022-08-25T02:28:56;2.17;;;0.90;;
19059;SDS011;9663;48.996;8.334;2022-08-25T02:31:23;3.28;;;1.10;;
19059;SDS011;9663;48.996;8.334;2022-08-25T02:33:50;2.08;;;0.88;;
19059;SDS011;9663;48.996;8.334;2022-08-25T02:36:17;3.10;;;0.95;;
19059;SDS011;9663;48.996;8.334;2022-08-25T02:38:44;1.85;;;0.80;;
19059;SDS011;9663;48.996;8.334;2022-08-25T02:41:19;4.15;;;1.00;;
19059;SDS011;9663;48.996;8.334;2022-08-25T02:43:48;2.28;;;0.90;;
19059;SDS011;9663;48.996;8.334;2022-08-25T02:46:16;1.83;;;0.80;;
19059;SDS011;9663;48.996;8.334;2022-08-25T02:48:44;3.38;;;1.10;;
19059;SDS011;9663;48.996;8.334;2022-08-25T02:51:11;2.67;;;1.10;;
19059;SDS011;9663;48.996;8.334;2022-08-25T02:53:39;2.63;;;1.00;;
19059;SDS011;9663;48.996;8.334;2022-08-25T02:56:07;2.63;;;1.10;;
19059;SDS011;9663;48.996;8.334;2022-08-25T02:58:35;3.50;;;1.30;;
19059;SDS011;9663;48.996;8.334;2022-08-25T03:01:02;3.17;;;1.27;;
19059;SDS011;9663;48.996;8.334;2022-08-25T03:03:29;3.00;;;1.00;;
19059;SDS011;9663;48.996;8.334;2022-08-25T03:05:55;3.28;;;1.27;;
19059;SDS011;9663;48.996;8.334;2022-08-25T03:08:21;2.78;;;1.10;;
19059;SDS011;9663;48.996;8.334;2022-08-25T03:10:48;3.10;;;1.10;;
19059;SDS011;9663;48.996;8.334;2022-08-25T03:13:14;2.50;;;0.90;;
19059;SDS011;9663;48.996;8.334;2022-08-25T03:15:40;2.50;;;0.95;;
19059;SDS011;9663;48.996;8.334;2022-08-25T03:18:07;3.10;;;1.20;;
19059;SDS011;9663;48.996;8.334;2022-08-25T03:20:35;3.97;;;0.98;;
19059;SDS011;9663;48.996;8.334;2022-08-25T03:23:03;2.63;;;1.20;;
19059;SDS011;9663;48.996;8.334;2022-08-25T03:25:30;2.90;;;1.10;;
19059;SDS011;9663;48.996;8.334;2022-08-25T03:28:14;2.30;;;1.00;;
19059;SDS011;9663;48.996;8.334;2022-08-25T03:30:41;2.58;;;1.08;;
19059;SDS011;9663;48.996;8.334;2022-08-25T03:33:07;2.00;;;0.98;;
19059;SDS011;9663;48.996;8.334;2022-08-25T03:35:33;2.55;;;1.08;;
19059;SDS011;9663;48.996;8.334;2022-08-25T03:37:59;2.63;;;1.20;;
19059;SDS011;9663;48.996;8.334;2022-08-25T03:40:26;2.95;;;1.17;;
19059;SDS011;9663;48.996;8.334;2022-08-25T03:42:52;3.50;;;1.05;;
19059;SDS011;9663;48.996;8.334;2022-08-25T03:45:20;2.45;;;1.00;;
19059;SDS011;9663;48.996;8.334;2022-08-25T03:47:48;3.03;;;1.20;;
19059;SDS011;9663;48.996;8.334;2022-08-25T03:50:16;2.95;;;1.20;;
19059;SDS011;9663;48.996;8.334;2022-08-25T03:52:44;2.72;;;1.25;;
19059;SDS011;9663;48.996;8.334;2022-08-25T03:55:16;3.08;;;0.88;;
19059;SDS011;9663;48.996;8.334;2022-08-25T03:57:41;3.70;;;1.40;;
19059;SDS011;9663;48.996;8.334;2022-08-25T04:00:07;3.00;;;1.10;;
19059;SDS011;9663;48.996;8.334;2022-08-25T04:02:36;2.80;;;1.10;;
19059;SDS011;9663;48.996;8.334;2022-08-25T04:05:02;3.25;;;1.13;;
19059;SDS011;9663;48.996;8.334;2022-08-25T04:07:28;2.40;;;1.00;;
19059;SDS011;9663;48.996;8.334;2022-08-25T04:09:54;3.90;;;1.00;;
19059;SDS011;9663;48.996;8.334;2022-08-25T04:12:20;3.45;;;1.00;;
19059;SDS011;9663;48.996;8.334;2022-08-25T04:14:47;2.67;;;1.05;;
19059;SDS011;9663;48.996;8.334;2022-08-25T04:17:12;2.90;;;1.25;;
19059;SDS011;9663;48.996;8.334;2022-08-25T04:19:38;2.80;;;1.20;;
19059;SDS011;9663;48.996;8.334;2022-08-25T04:22:04;4.05;;;1.20;;
19059;SDS011;9663;48.996;8.334;2022-08-25T04:24:30;2.40;;;1.02;;
19059;SDS011;9663;48.996;8.334;2022-08-25T04:26:56;2.58;;;1.00;;
19059;SDS011;9663;48.996;8.334;2022-08-25T04:29:22;3.65;;;1.40;;
19059;SDS011;9663;48.996;8.334;2022-08-25T04:31:49;2.80;;;1.20;;
19059;SDS011;9663;48.996;8.334;2022-08-25T04:34:17;3.33;;;1.05;;
19059;SDS011;9663;48.996;8.334;2022-08-25T04:36:46;2.78;;;1.13;;
19059;SDS011;9663;48.996;8.334;2022-08-25T04:39:15;4.38;;;1.20;;
19059;SDS011;9663;48.996;8.334;2022-08-25T04:41:44;3.92;;;1.20;;
19059;SDS011;9663;48.996;8.334;2022-08-25T04:44:10;2.35;;;0.93;;
19059;SDS011;9663;48.996;8.334;2022-08-25T04:46:36;3.63;;;1.30;;
19059;SDS011;9663;48.996;8.334;2022-08-25T04:49:02;2.75;;;1.20;;
19059;SDS011;9663;48.996;8.334;2022-08-25T04:51:30;3.33;;;1.35;;
19059;SDS011;9663;48.996;8.334;2022-08-25T04:54:04;4.63;;;1.40;;
19059;SDS011;9663;48.996;8.334;2022-08-25T04:56:40;3.38;;;1.23;;
19059;SDS011;9663;48.996;8.334;2022-08-25T04:59:09;4.07;;;1.50;;
19059;SDS011;9663;48.996;8.334;2022-08-25T05:01:38;3.08;;;1.45;;
19059;SDS011;9663;48.996;8.334;2022-08-25T05:04:06;3.22;;;1.40;;
19059;SDS011;9663;48.996;8.334;2022-08-25T05:06:34;3.15;;;1.33;;
19059;SDS011;9663;48.996;8.334;2022-08-25T05:09:02;4.22;;;1.30;;
19059;SDS011;9663;48.996;8.334;2022-08-25T05:11:29;3.08;;;1.40;;
19059;SDS011;9663;48.996;8.334;2022-08-25T05:13:55;2.97;;;1.30;;
19059;SDS011;9663;48.996;8.334;2022-08-25T05:16:24;3.65;;;1.70;;
19059;SDS011;9663;48.996;8.334;2022-08-25T05:18:51;2.80;;;1.00;;
19059;SDS011;9663;48.996;8.334;2022-08-25T05:21:23;3.47;;;1.35;;
19059;SDS011;9663;48.996;8.334;2022-08-25T05:23:56;3.78;;;1.48;;
19059;SDS011;9663;48.996;8.334;2022-08-25T05:26:24;3.40;;;1.45;;
19059;SDS011;9663;48.996;8.334;2022-08-25T05:28:54;4.65;;;1.40;;
19059;SDS011;9663;48.996;8.334;2022-08-25T05:31:21;3.45;;;1.40;;
19059;SDS011;9663;48.996;8.334;2022-08-25T05:33:49;5.72;;;1.95;;
19059;SDS011;9663;48.996;8.334;2022-08-25T05:36:16;4.05;;;1.40;;
19059;SDS011;9663;48.996;8.334;2022-08-25T05:38:44;3.63;;;1.40;;
19059;SDS011;9663;48.996;8.334;2022-08-25T05:41:11;3.30;;;1.42;;
19059;SDS011;9663;48.996;8.334;2022-08-25T05:43:42;4.55;;;1.45;;
19059;SDS011;9663;48.996;8.334;2022-08-25T05:46:10;3.25;;;1.40;;
19059;SDS011;9663;48.996;8.334;2022-08-25T05:48:37;3.75;;;1.50;;
19059;SDS011;9663;48.996;8.334;2022-08-25T05:51:03;3.72;;;1.70;;
19059;SDS011;9663;48.996;8.334;2022-08-25T05:53:32;3.63;;;1.60;;
19059;SDS011;9663;48.996;8.334;2022-08-25T05:55:58;3.72;;;1.67;;
19059;SDS011;9663;48.996;8.334;2022-08-25T05:58:25;3.58;;;1.60;;
19059;SDS011;9663;48.996;8.334;2022-08-25T06:00:54;4.25;;;1.40;;
19059;SDS011;9663;48.996;8.334;2022-08-25T06:03:21;3.65;;;1.48;;
19059;SDS011;9663;48.996;8.334;2022-08-25T06:05:47;4.00;;;1.58;;
19059;SDS011;9663;48.996;8.334;2022-08-25T06:08:13;3.33;;;1.60;;
19059;SDS011;9663;48.996;8.334;2022-08-25T06:10:40;5.22;;;1.75;;
19059;SDS011;9663;48.996;8.334;2022-08-25T06:13:06;4.38;;;1.52;;
19059;SDS011;9663;48.996;8.334;2022-08-25T06:15:32;4.13;;;1.52;;
19059;SDS011;9663;48.996;8.334;2022-08-25T06:17:59;4.03;;;1.70;;
19059;SDS011;9663;48.996;8.334;2022-08-25T06:20:26;5.22;;;1.85;;
19059;SDS011;9663;48.996;8.334;2022-08-25T06:22:55;4.20;;;1.70;;
19059;SDS011;9663;48.996;8.334;2022-08-25T06:25:23;3.63;;;1.67;;
19059;SDS011;9663;48.996;8.334;2022-08-25T06:27:52;3.28;;;1.50;;
19059;SDS011;9663;48.996;8.334;2022-08-25T06:30:19;5.03;;;1.50;;
19059;SDS011;9663;48.996;8.334;2022-08-25T06:32:48;3.83;;;1.70;;
19059;SDS011;9663;48.996;8.334;2022-08-25T06:35:15;3.75;;;1.70;;
19059;SDS011;9663;48.996;8.334;2022-08-25T06:37:43;4.30;;;1.70;;
19059;SDS011;9663;48.996;8.334;2022-08-25T06:40:10;3.60;;;1.55;;
19059;SDS011;9663;48.996;8.334;2022-08-25T06:42:37;3.42;;;1.63;;
19059;SDS011;9663;48.996;8.334;2022-08-25T06:45:03;3.58;;;1.55;;
19059;SDS011;9663;48.996;8.334;2022-08-25T06:47:30;3.72;;;1.60;;
19059;SDS011;9663;48.996;8.334;2022-08-25T06:49:56;3.88;;;1.73;;
19059;SDS011;9663;48.996;8.334;2022-08-25T06:52:22;3.60;;;1.45;;
19059;SDS011;9663;48.996;8.334;2022-08-25T06:54:48;3.63;;;1.80;;
19059;SDS011;9663;48.996;8.334;2022-08-25T06:57:13;3.83;;;1.60;;
19059;SDS011;9663;48.996;8.334;2022-08-25T06:59:39;3.35;;;1.50;;
19059;SDS011;9663;48.996;8.334;2022-08-25T07:02:05;3.83;;;1.63;;
19059;SDS011;9663;48.996;8.334;2022-08-25T07:04:32;3.80;;;1.67;;
19059;SDS011;9663;48.996;8.334;2022-08-25T07:06:59;3.47;;;1.60;;
19059;SDS011;9663;48.996;8.334;2022-08-25T07:09:25;3.67;;;1.70;;
19059;SDS011;9663;48.996;8.334;2022-08-25T07:11:51;3.88;;;1.65;;
19059;SDS011;9663;48.996;8.334;2022-08-25T07:14:18;3.53;;;1.67;;
19059;SDS011;9663;48.996;8.334;2022-08-25T07:16:44;3.67;;;1.67;;
19059;SDS011;9663;48.996;8.334;2022-08-25T07:19:10;3.83;;;1.80;;
19059;SDS011;9663;48.996;8.334;2022-08-25T07:21:37;3.30;;;1.42;;
19059;SDS011;9663;48.996;8.334;2022-08-25T07:24:07;4.05;;;1.90;;
19059;SDS011;9663;48.996;8.334;2022-08-25T07:26:37;4.43;;;2.10;;
19059;SDS011;9663;48.996;8.334;2022-08-25T07:29:07;4.47;;;2.03;;
19059;SDS011;9663;48.996;8.334;2022-08-25T07:31:40;4.38;;;2.10;;
19059;SDS011;9663;48.996;8.334;2022-08-25T07:34:07;3.80;;;1.90;;
19059;SDS011;9663;48.996;8.334;2022-08-25T07:36:52;4.50;;;2.20;;
19059;SDS011;9663;48.996;8.334;2022-08-25T07:39:19;3.92;;;2.03;;
19059;SDS011;9663;48.996;8.334;2022-08-25T07:41:45;5.15;;;1.75;;
19059;SDS011;9663;48.996;8.334;2022-08-25T07:44:11;4.15;;;1.80;;
19059;SDS011;9663;48.996;8.334;2022-08-25T07:46:37;3.90;;;1.77;;
19059;SDS011;9663;48.996;8.334;2022-08-25T07:49:03;3.83;;;1.63;;
19059;SDS011;9663;48.996;8.334;2022-08-25T07:51:31;3.60;;;1.60;;
19059;SDS011;9663;48.996;8.334;2022-08-25T07:53:57;4.40;;;1.92;;
19059;SDS011;9663;48.996;8.334;2022-08-25T07:56:23;4.00;;;1.80;;
19059;SDS011;9663;48.996;8.334;2022-08-25T07:58:49;5.93;;;1.80;;
19059;SDS011;9663;48.996;8.334;2022-08-25T08:01:18;4.35;;;1.90;;
19059;SDS011;9663;48.996;8.334;2022-08-25T08:03:47;3.78;;;1.83;;
19059;SDS011;9663;48.996;8.334;2022-08-25T08:06:14;3.95;;;1.85;;
19059;SDS011;9663;48.996;8.334;2022-08-25T08:08:46;3.92;;;1.95;;
19059;SDS011;9663;48.996;8.334;2022-08-25T08:11:15;4.45;;;1.90;;
19059;SDS011;9663;48.996;8.334;2022-08-25T08:13:52;3.50;;;1.67;;
19059;SDS011;9663;48.996;8.334;2022-08-25T08:16:21;4.38;;;2.10;;
19059;SDS011;9663;48.996;8.334;2022-08-25T08:18:50;4.00;;;1.92;;
19059;SDS011;9663;48.996;8.334;2022-08-25T08:21:18;3.60;;;1.73;;
19059;SDS011;9663;48.996;8.334;2022-08-25T08:23:51;4.97;;;2.40;;
19059;SDS011;9663;48.996;8.334;2022-08-25T08:26:18;4.68;;;2.50;;
19059;SDS011;9663;48.996;8.334;2022-08-25T08:28:44;4.72;;;2.08;;
19059;SDS011;9663;48.996;8.334;2022-08-25T08:31:10;4.10;;;2.20;;
19059;SDS011;9663;48.996;8.334;2022-08-25T08:33:36;5.88;;;2.20;;
19059;SDS011;9663;48.996;8.334;2022-08-25T08:36:03;5.03;;;2.45;;
19059;SDS011;9663;48.996;8.334;2022-08-25T08:38:34;3.50;;;1.60;;
19059;SDS011;9663;48.996;8.334;2022-08-25T08:41:05;4.30;;;2.40;;
19059;SDS011;9663;48.996;8.334;2022-08-25T08:44:02;4.40;;;2.20;;
19059;SDS011;9663;48.996;8.334;2022-08-25T08:46:55;3.83;;;1.90;;
19059;SDS011;9663;48.996;8.334;2022-08-25T08:52:42;3.95;;;1.92;;
19059;SDS011;9663;48.996;8.334;2022-08-25T08:55:50;3.78;;;1.92;;
19059;SDS011;9663;48.996;8.334;2022-08-25T08:58:46;4.82;;;1.85;;
19059;SDS011;9663;48.996;8.334;2022-08-25T09:01:26;4.05;;;1.90;;
19059;SDS011;9663;48.996;8.334;2022-08-25T09:04:19;4.05;;;1.95;;
19059;SDS011;9663;48.996;8.334;2022-08-25T09:06:50;3.70;;;1.70;;
19059;SDS011;9663;48.996;8.334;2022-08-25T09:09:24;3.67;;;1.80;;
19059;SDS011;9663;48.996;8.334;2022-08-25T09:12:14;4.60;;;2.50;;
19059;SDS011;9663;48.996;8.334;2022-08-25T09:22:00;3.92;;;1.70;;
19059;SDS011;9663;48.996;8.334;2022-08-25T09:31:13;3.40;;;1.45;;
19059;SDS011;9663;48.996;8.334;2022-08-25T09:33:54;4.22;;;1.73;;
19059;SDS011;9663;48.996;8.334;2022-08-25T09:36:23;3.50;;;1.98;;
19059;SDS011;9663;48.996;8.334;2022-08-25T09:38:49;4.38;;;1.90;;
19059;SDS011;9663;48.996;8.334;2022-08-25T09:41:16;3.50;;;1.88;;
19059;SDS011;9663;48.996;8.334;2022-08-25T09:44:04;3.10;;;1.50;;
19059;SDS011;9663;48.996;8.334;2022-08-25T09:49:57;3.90;;;1.70;;
19059;SDS011;9663;48.996;8.334;2022-08-25T09:57:32;3.60;;;1.70;;
19059;SDS011;9663;48.996;8.334;2022-08-25T10:02:37;4.43;;;1.85;;
19059;SDS011;9663;48.996;8.334;2022-08-25T10:05:16;3.33;;;1.58;;
19059;SDS011;9663;48.996;8.334;2022-08-25T10:07:49;3.40;;;1.60;;
19059;SDS011;9663;48.996;8.334;2022-08-25T10:13:30;3.95;;;1.80;;
19059;SDS011;9663;48.996;8.334;2022-08-25T10:16:05;4.10;;;1.88;;
19059;SDS011;9663;48.996;8.334;2022-08-25T10:18:59;3.42;;;1.63;;
19059;SDS011;9663;48.996;8.334;2022-08-25T10:21:46;3.40;;;1.52;;
19059;SDS011;9663;48.996;8.334;2022-08-25T10:24:56;3.35;;;1.42;;
19059;SDS011;9663;48.996;8.334;2022-08-25T10:30:21;3.10;;;1.40;;
19059;SDS011;9663;48.996;8.334;2022-08-25T10:33:14;3.80;;;1.77;;
19059;SDS011;9663;48.996;8.334;2022-08-25T10:44:28;3.33;;;1.58;;
19059;SDS011;9663;48.996;8.334;2022-08-25T10:50:22;3.97;;;1.75;;
19059;SDS011;9663;48.996;8.334;2022-08-25T10:55:53;3.63;;;1.65;;
19059;SDS011;9663;48.996;8.334;2022-08-25T10:58:50;3.58;;;1.80;;
19059;SDS011;9663;48.996;8.334;2022-08-25T11:04:53;3.70;;;1.80;;
19059;SDS011;9663;48.996;8.334;2022-08-25T11:07:32;3.60;;;1.75;;
19059;SDS011;9663;48.996;8.334;2022-08-25T11:10:10;4.55;;;1.63;;
19059;SDS011;9663;48.996;8.334;2022-08-25T11:12:44;3.67;;;1.83;;
19059;SDS011;9663;48.996;8.334;2022-08-25T11:15:20;3.97;;;1.98;;
19059;SDS011;9663;48.996;8.334;2022-08-25T11:18:14;3.67;;;1.70;;
19059;SDS011;9663;48.996;8.334;2022-08-25T11:23:43;3.67;;;1.80;;
19059;SDS011;9663;48.996;8.334;2022-08-25T11:26:23;3.75;;;1.83;;
19059;SDS011;9663;48.996;8.334;2022-08-25T11:31:43;3.63;;;1.90;;
19059;SDS011;9663;48.996;8.334;2022-08-25T11:34:13;3.83;;;1.77;;
19059;SDS011;9663;48.996;8.334;2022-08-25T11:36:41;3.70;;;1.90;;
19059;SDS011;9663;48.996;8.334;2022-08-25T11:39:28;3.65;;;1.73;;
19059;SDS011;9663;48.996;8.334;2022-08-25T11:47:50;3.03;;;1.48;;
19059;SDS011;9663;48.996;8.334;2022-08-25T11:50:59;4.32;;;1.90;;
19059;SDS011;9663;48.996;8.334;2022-08-25T11:53:41;3.38;;;1.60;;
19059;SDS011;9663;48.996;8.334;2022-08-25T11:56:12;3.28;;;1.63;;
19059;SDS011;9663;48.996;8.334;2022-08-25T11:58:58;3.45;;;1.50;;
19059;SDS011;9663;48.996;8.334;2022-08-25T12:09:31;3.95;;;1.77;;
19059;SDS011;9663;48.996;8.334;2022-08-25T12:11:58;3.20;;;1.73;;
19059;SDS011;9663;48.996;8.334;2022-08-25T12:18:08;3.10;;;1.60;;
19059;SDS011;9663;48.996;8.334;2022-08-25T12:23:27;5.47;;;1.88;;
19059;SDS011;9663;48.996;8.334;2022-08-25T12:26:43;3.30;;;1.60;;
19059;SDS011;9663;48.996;8.334;2022-08-25T12:29:21;3.30;;;1.70;;
19059;SDS011;9663;48.996;8.334;2022-08-25T12:38:02;3.70;;;2.00;;
19059;SDS011;9663;48.996;8.334;2022-08-25T12:43:12;4.07;;;1.77;;
19059;SDS011;9663;48.996;8.334;2022-08-25T12:52:17;3.80;;;1.88;;
19059;SDS011;9663;48.996;8.334;2022-08-25T12:54:49;2.78;;;1.27;;
19059;SDS011;9663;48.996;8.334;2022-08-25T13:09:44;4.15;;;1.80;;
19059;SDS011;9663;48.996;8.334;2022-08-25T13:16:00;3.30;;;1.67;;
19059;SDS011;9663;48.996;8.334;2022-08-25T13:18:31;3.05;;;1.67;;
19059;SDS011;9663;48.996;8.334;2022-08-25T13:23:52;3.50;;;1.60;;
19059;SDS011;9663;48.996;8.334;2022-08-25T13:26:24;3.25;;;1.73;;
19059;SDS011;9663;48.996;8.334;2022-08-25T13:28:58;3.55;;;1.83;;
19059;SDS011;9663;48.996;8.334;2022-08-25T13:31:36;3.53;;;1.63;;
19059;SDS011;9663;48.996;8.334;2022-08-25T13:34:18;3.22;;;1.80;;
19059;SDS011;9663;48.996;8.334;2022-08-25T13:36:48;3.28;;;1.77;;
19059;SDS011;9663;48.996;8.334;2022-08-25T13:39:34;3.92;;;1.70;;
19059;SDS011;9663;48.996;8.334;2022-08-25T13:42:03;4.15;;;2.20;;
19059;SDS011;9663;48.996;8.334;2022-08-25T13:44:37;3.80;;;1.80;;
19059;SDS011;9663;48.996;8.334;2022-08-25T13:47:08;4.22;;;1.65;;
19059;SDS011;9663;48.996;8.334;2022-08-25T13:49:42;3.58;;;1.83;;
19059;SDS011;9663;48.996;8.334;2022-08-25T13:52:24;3.65;;;1.90;;
19059;SDS011;9663;48.996;8.334;2022-08-25T13:54:58;3.25;;;1.65;;
19059;SDS011;9663;48.996;8.334;2022-08-25T13:57:28;3.97;;;1.70;;
19059;SDS011;9663;48.996;8.334;2022-08-25T13:59:56;3.50;;;1.88;;
19059;SDS011;9663;48.996;8.334;2022-08-25T14:02:39;3.30;;;1.80;;
19059;SDS011;9663;48.996;8.334;2022-08-25T14:05:15;3.67;;;1.83;;
19059;SDS011;9663;48.996;8.334;2022-08-25T14:08:06;3.00;;;1.52;;
19059;SDS011;9663;48.996;8.334;2022-08-25T14:13:34;3.05;;;1.55;;
19059;SDS011;9663;48.996;8.334;2022-08-25T14:18:46;4.80;;;1.80;;
19059;SDS011;9663;48.996;8.334;2022-08-25T14:21:16;2.90;;;1.60;;
19059;SDS011;9663;48.996;8.334;2022-08-25T14:23:51;3.55;;;1.88;;
19059;SDS011;9663;48.996;8.334;2022-08-25T14:26:19;3.15;;;1.80;;
19059;SDS011;9663;48.996;8.334;2022-08-25T14:28:45;3.28;;;1.65;;
19059;SDS011;9663;48.996;8.334;2022-08-25T14:33:59;3.40;;;1.77;;
19059;SDS011;9663;48.996;8.334;2022-08-25T14:36:38;3.70;;;1.90;;
19059;SDS011;9663;48.996;8.334;2022-08-25T14:39:05;3.40;;;2.00;;
19059;SDS011;9663;48.996;8.334;2022-08-25T14:41:31;3.10;;;1.70;;
19059;SDS011;9663;48.996;8.334;2022-08-25T14:47:40;3.05;;;1.88;;
19059;SDS011;9663;48.996;8.334;2022-08-25T14:50:09;3.53;;;2.05;;
19059;SDS011;9663;48.996;8.334;2022-08-25T14:52:36;3.67;;;1.95;;
19059;SDS011;9663;48.996;8.334;2022-08-25T14:55:02;3.60;;;2.00;;
19059;SDS011;9663;48.996;8.334;2022-08-25T14:57:28;3.28;;;1.83;;
19059;SDS011;9663;48.996;8.334;2022-08-25T14:59:54;3.65;;;2.13;;
19059;SDS011;9663;48.996;8.334;2022-08-25T15:02:20;3.60;;;1.80;;
19059;SDS011;9663;48.996;8.334;2022-08-25T15:04:59;3.50;;;2.00;;
19059;SDS011;9663;48.996;8.334;2022-08-25T15:07:29;3.75;;;2.00;;
19059;SDS011;9663;48.996;8.334;2022-08-25T15:10:16;3.40;;;1.90;;
19059;SDS011;9663;48.996;8.334;2022-08-25T15:12:41;3.65;;;2.00;;
19059;SDS011;9663;48.996;8.334;2022-08-25T15:15:08;3.22;;;2.00;;
19059;SDS011;9663;48.996;8.334;2022-08-25T15:17:34;3.70;;;2.28;;
19059;SDS011;9663;48.996;8.334;2022-08-25T15:20:01;3.10;;;1.90;;
19059;SDS011;9663;48.996;8.334;2022-08-25T15:22:28;3.50;;;2.10;;
19059;SDS011;9663;48.996;8.334;2022-08-25T15:24:53;3.50;;;1.83;;
19059;SDS011;9663;48.996;8.334;2022-08-25T15:27:19;3.85;;;1.95;;
19059;SDS011;9663;48.996;8.334;2022-08-25T15:29:46;3.92;;;2.20;;
19059;SDS011;9663;48.996;8.334;2022-08-25T15:32:12;3.30;;;1.90;;
19059;SDS011;9663;48.996;8.334;2022-08-25T15:34:38;3.95;;;2.13;;
19059;SDS011;9663;48.996;8.334;2022-08-25T15:37:05;3.22;;;2.00;;
19059;SDS011;9663;48.996;8.334;2022-08-25T15:39:36;3.40;;;2.00;;
19059;SDS011;9663;48.996;8.334;2022-08-25T15:42:04;3.60;;;2.10;;
19059;SDS011;9663;48.996;8.334;2022-08-25T15:44:30;3.13;;;1.77;;
19059;SDS011;9663;48.996;8.334;2022-08-25T15:46:57;3.20;;;1.83;;
19059;SDS011;9663;48.996;8.334;2022-08-25T15:49:23;3.30;;;2.00;;
19059;SDS011;9663;48.996;8.334;2022-08-25T15:51:51;3.15;;;1.92;;
19059;SDS011;9663;48.996;8.334;2022-08-25T15:54:18;3.00;;;2.00;;
19059;SDS011;9663;48.996;8.334;2022-08-25T15:56:44;3.25;;;1.70;;
19059;SDS011;9663;48.996;8.334;2022-08-25T15:59:11;3.40;;;2.00;;
19059;SDS011;9663;48.996;8.334;2022-08-25T16:01:37;3.28;;;1.92;;
19059;SDS011;9663;48.996;8.334;2022-08-25T16:04:05;4.05;;;2.00;;
19059;SDS011;9663;48.996;8.334;2022-08-25T16:06:31;3.20;;;1.83;;
19059;SDS011;9663;48.996;8.334;2022-08-25T16:08:58;3.28;;;1.80;;
19059;SDS011;9663;48.996;8.334;2022-08-25T16:11:25;2.83;;;1.60;;
19059;SDS011;9663;48.996;8.334;2022-08-25T16:13:55;3.70;;;1.55;;
19059;SDS011;9663;48.996;8.334;2022-08-25T16:16:22;3.30;;;1.70;;
19059;SDS011;9663;48.996;8.334;2022-08-25T16:18:52;3.08;;;1.45;;
19059;SDS011;9663;48.996;8.334;2022-08-25T16:21:19;2.78;;;1.35;;
19059;SDS011;9663;48.996;8.334;2022-08-25T16:23:53;2.70;;;1.50;;
19059;SDS011;9663;48.996;8.334;2022-08-25T16:26:22;3.47;;;1.60;;
19059;SDS011;9663;48.996;8.334;2022-08-25T16:28:48;2.22;;;1.30;;
19059;SDS011;9663;48.996;8.334;2022-08-25T16:31:15;3.22;;;1.48;;
19059;SDS011;9663;48.996;8.334;2022-08-25T16:33:41;3.03;;;1.48;;
19059;SDS011;9663;48.996;8.334;2022-08-25T16:36:12;3.03;;;1.42;;
19059;SDS011;9663;48.996;8.334;2022-08-25T16:38:47;3.28;;;1.60;;
19059;SDS011;9663;48.996;8.334;2022-08-25T16:41:16;3.03;;;1.50;;
19059;SDS011;9663;48.996;8.334;2022-08-25T16:43:47;3.22;;;1.38;;
19059;SDS011;9663;48.996;8.334;2022-08-25T16:46:15;3.28;;;1.40;;
19059;SDS011;9663;48.996;8.334;2022-08-25T16:48:45;2.95;;;1.20;;
19059;SDS011;9663;48.996;8.334;2022-08-25T16:51:15;2.92;;;1.30;;
19059;SDS011;9663;48.996;8.334;2022-08-25T16:53:45;2.85;;;1.40;;
19059;SDS011;9663;48.996;8.334;2022-08-25T16:56:31;2.95;;;1.23;;
19059;SDS011;9663;48.996;8.334;2022-08-25T16:59:00;3.90;;;1.23;;
19059;SDS011;9663;48.996;8.334;2022-08-25T17:01:28;2.90;;;1.48;;
19059;SDS011;9663;48.996;8.334;2022-08-25T17:03:58;2.80;;;1.25;;
19059;SDS011;9663;48.996;8.334;2022-08-25T17:06:25;3.75;;;1.40;;
19059;SDS011;9663;48.996;8.334;2022-08-25T17:08:53;2.90;;;1.27;;
19059;SDS011;9663;48.996;8.334;2022-08-25T17:11:23;3.75;;;1.33;;
19059;SDS011;9663;48.996;8.334;2022-08-25T17:13:56;3.17;;;1.30;;
19059;SDS011;9663;48.996;8.334;2022-08-25T17:16:27;3.40;;;1.52;;
19059;SDS011;9663;48.996;8.334;2022-08-25T17:18:56;2.78;;;1.20;;
19059;SDS011;9663;48.996;8.334;2022-08-25T17:21:25;2.92;;;1.27;;
19059;SDS011;9663;48.996;8.334;2022-08-25T17:23:57;2.45;;;1.02;;
19059;SDS011;9663;48.996;8.334;2022-08-25T17:26:24;2.97;;;1.10;;
19059;SDS011;9663;48.996;8.334;2022-08-25T17:28:51;2.70;;;1.20;;
19059;SDS011;9663;48.996;8.334;2022-08-25T17:31:17;3.80;;;1.38;;